KSEA/SEA METAR and TAF weather

Enter ICAO airport designator
Station Type Date Time Source
KSEA METAR 2018/12/15 22:53 UTC NOAA

KSEA 152253Z 11008KT 10SM FEW060 OVC100 10/M01 A2991 RMK AO2 SLP137 T01001006


Station Type Date Time Source
KSEA Decoded METAR 2018/12/15 22:53 UTC NOAA

SEATTLE-TACOMA INTERNATIONAL AIRPORT , WA, United States (KSEA) 47-27N 122-19W 136M
Dec 15, 2018 - 05:53 PM EST / 2018.12.15 2253 UTC
Wind: from the ESE (110 degrees) at 9 MPH (8 KT):0
Visibility: 10 mile(s):0
Sky conditions: overcast
Temperature: 50.0 F (10.0 C)
Dew Point: 30.9 F (-0.6 C)
Relative Humidity: 47%
Pressure (altimeter): 29.91 in. Hg (1012 hPa)
ob: KSEA 152253Z 11008KT 10SM FEW060 OVC100 10/M01 A2991 RMK AO2 SLP137 T01001006
cycle: 23

Station Type Date Time Source
KSEA TAF 2018/12/15 21:03 UTC NOAA

TAF
AMD KSEA 152100Z 1521/1624 10008KT P6SM SCT060 BKN120 OVC200
FM160300 10012KT P6SM -RA SCT035 OVC060


Example: see airport list